N510MV KUZA-14A
Flight info
| Callsign | N510MV |
|---|---|
| Flight time | N/A |
| Altitude | VFR/045 |
| Route | |
| Aircraft | C525/L-DOV/C |
Departure
| Time | 2026-04-18 16:40 |
|---|---|
| Airport | Rock Hill - York County Airport (KUZA) |
Arrival
| Time | N/A |
|---|---|
| Airport | 14A |
| Time | Latitude | Longitude | Altitude | Speed | Heading |
|---|---|---|---|---|---|
| 2026-04-18 16:40 | 35.01724 | -80.68039 | 4659 ft | 202 kts | 352° |
| 2026-04-18 16:40 | 35.03112 | -80.68387 | 5735 ft | 196 kts | 345° |
| 2026-04-18 16:40 | 35.04463 | -80.68820 | 6379 ft | 208 kts | 341° |
| 2026-04-18 16:40 | 35.06014 | -80.69376 | 6479 ft | 240 kts | 341° |
| 2026-04-18 16:41 | 35.09598 | -80.70693 | 6481 ft | 272 kts | 341° |
| 2026-04-18 16:41 | 35.11434 | -80.71367 | 6467 ft | 265 kts | 341° |
| 2026-04-18 16:41 | 35.13231 | -80.72036 | 6462 ft | 259 kts | 341° |
| 2026-04-18 16:42 | 35.15004 | -80.72685 | 6467 ft | 255 kts | 341° |
| 2026-04-18 16:42 | 35.16758 | -80.73336 | 6465 ft | 252 kts | 341° |
| 2026-04-18 16:42 | 35.18500 | -80.73980 | 6467 ft | 250 kts | 341° |
| 2026-04-18 16:42 | 35.20209 | -80.74614 | 6465 ft | 248 kts | 341° |
| 2026-04-18 16:43 | 35.21914 | -80.75243 | 6465 ft | 248 kts | 341° |
| 2026-04-18 16:43 | 35.23596 | -80.75871 | 6465 ft | 247 kts | 341° |
| 2026-04-18 16:43 | 35.25304 | -80.76499 | 6462 ft | 247 kts | 340° |
| 2026-04-18 16:43 | 35.27020 | -80.77138 | 6463 ft | 246 kts | 341° |
| 2026-04-18 16:44 | 35.28712 | -80.77765 | 6464 ft | 246 kts | 341° |
| 2026-04-18 16:44 | 35.30392 | -80.78391 | 6463 ft | 246 kts | 341° |
| 2026-04-18 16:44 | 35.32105 | -80.79026 | 6463 ft | 246 kts | 341° |
| 2026-04-18 16:44 | 35.33810 | -80.79657 | 6464 ft | 246 kts | 340° |
| 2026-04-18 16:45 | 35.35514 | -80.80292 | 6462 ft | 246 kts | 341° |
| 2026-04-18 16:45 | 35.37189 | -80.80913 | 6464 ft | 246 kts | 340° |
| 2026-04-18 16:45 | 35.38905 | -80.81553 | 6464 ft | 246 kts | 341° |
| 2026-04-18 16:45 | 35.40638 | -80.82198 | 6466 ft | 246 kts | 341° |
| 2026-04-18 16:46 | 35.42324 | -80.82824 | 6468 ft | 246 kts | 341° |
| 2026-04-18 16:46 | 35.44040 | -80.83465 | 6464 ft | 247 kts | 341° |
| 2026-04-18 16:46 | 35.45751 | -80.84099 | 6465 ft | 247 kts | 340° |
| 2026-04-18 16:46 | 35.47479 | -80.84747 | 6466 ft | 247 kts | 340° |
| 2026-04-18 16:47 | 35.48994 | -80.85311 | 6468 ft | 246 kts | 341° |
| 2026-04-18 16:47 | 35.50652 | -80.85930 | 6463 ft | 246 kts | 340° |
| 2026-04-18 16:47 | 35.52300 | -80.86541 | 6446 ft | 235 kts | 340° |
| 2026-04-18 16:47 | 35.53901 | -80.87143 | 6096 ft | 240 kts | 340° |
| 2026-04-18 16:48 | 35.55537 | -80.87753 | 5731 ft | 240 kts | 340° |
| 2026-04-18 16:48 | 35.57176 | -80.88365 | 5373 ft | 240 kts | 340° |
| 2026-04-18 16:48 | 35.58835 | -80.88985 | 5012 ft | 240 kts | 340° |
| 2026-04-18 16:48 | 35.60488 | -80.89604 | 4653 ft | 240 kts | 340° |
| 2026-04-18 16:49 | 35.62121 | -80.90221 | 4481 ft | 230 kts | 340° |
| 2026-04-18 16:49 | 35.63650 | -80.90786 | 4457 ft | 217 kts | 340° |
| 2026-04-18 16:49 | 35.65191 | -80.91362 | 4108 ft | 223 kts | 340° |
| 2026-04-18 16:49 | 35.66781 | -80.91953 | 3739 ft | 226 kts | 341° |
| 2026-04-18 16:50 | 35.68302 | -80.92522 | 3360 ft | 214 kts | 340° |
| 2026-04-18 16:50 | 35.69778 | -80.93076 | 2971 ft | 207 kts | 340° |
| 2026-04-18 16:50 | 35.71192 | -80.93606 | 2590 ft | 195 kts | 340° |
| 2026-04-18 16:50 | 35.72392 | -80.94042 | 2429 ft | 150 kts | 341° |
| 2026-04-18 16:51 | 35.73440 | -80.94429 | 2109 ft | 147 kts | 340° |
| 2026-04-18 16:51 | 35.74427 | -80.94800 | 1985 ft | 137 kts | 340° |
| 2026-04-18 16:51 | 35.75414 | -80.95160 | 1993 ft | 145 kts | 341° |
| 2026-04-18 16:51 | 35.76467 | -80.95546 | 1999 ft | 155 kts | 341° |
| 2026-04-18 16:52 | 35.77582 | -80.95967 | 2003 ft | 165 kts | 340° |
| 2026-04-18 16:52 | 35.78751 | -80.96397 | 1993 ft | 173 kts | 340° |
| 2026-04-18 16:52 | 35.79961 | -80.96816 | 1985 ft | 178 kts | 344° |
| 2026-04-18 16:52 | 35.81233 | -80.96562 | 1987 ft | 182 kts | 31° |
| 2026-04-18 16:53 | 35.81990 | -80.95339 | 1985 ft | 179 kts | 77° |
| 2026-04-18 16:53 | 35.81861 | -80.93865 | 1985 ft | 172 kts | 121° |
| 2026-04-18 16:53 | 35.80949 | -80.92970 | 1981 ft | 166 kts | 165° |
| 2026-04-18 16:53 | 35.79795 | -80.92736 | 1995 ft | 163 kts | 174° |
| 2026-04-18 16:54 | 35.78609 | -80.92531 | 1987 ft | 161 kts | 174° |
| 2026-04-18 16:54 | 35.77432 | -80.92348 | 1991 ft | 161 kts | 175° |
| 2026-04-18 16:54 | 35.76260 | -80.92384 | 1986 ft | 161 kts | 185° |
| 2026-04-18 16:54 | 35.75066 | -80.92487 | 1983 ft | 162 kts | 185° |
| 2026-04-18 16:55 | 35.73889 | -80.92587 | 1976 ft | 161 kts | 185° |
| 2026-04-18 16:55 | 35.72722 | -80.92698 | 1975 ft | 159 kts | 187° |
| 2026-04-18 16:55 | 35.71584 | -80.92966 | 1966 ft | 151 kts | 193° |
| 2026-04-18 16:55 | 35.70613 | -80.93221 | 1960 ft | 124 kts | 193° |
| 2026-04-18 16:56 | 35.69743 | -80.93446 | 1967 ft | 121 kts | 193° |
| 2026-04-18 16:56 | 35.68867 | -80.93669 | 1977 ft | 123 kts | 192° |
| 2026-04-18 16:56 | 35.67969 | -80.93906 | 1981 ft | 125 kts | 192° |
| 2026-04-18 16:56 | 35.67061 | -80.94041 | 1953 ft | 124 kts | 180° |
| 2026-04-18 16:57 | 35.66197 | -80.93947 | 1864 ft | 122 kts | 172° |
| 2026-04-18 16:57 | 35.65354 | -80.93705 | 1773 ft | 122 kts | 163° |
| 2026-04-18 16:57 | 35.64560 | -80.93266 | 1613 ft | 117 kts | 154° |
| 2026-04-18 16:57 | 35.63846 | -80.92738 | 1397 ft | 115 kts | 150° |
| 2026-04-18 16:58 | 35.63251 | -80.92082 | 1222 ft | 104 kts | 140° |
| 2026-04-18 16:58 | 35.62696 | -80.91452 | 1052 ft | 103 kts | 143° |
| 2026-04-18 16:58 | 35.62168 | -80.90844 | 928 ft | 101 kts | 141° |
| 2026-04-18 16:58 | 35.61647 | -80.90243 | 801 ft | 88 kts | 141° |
| 2026-04-18 16:59 | 35.61350 | -80.89903 | 808 ft | 17 kts | 138° |
| 2026-04-18 16:59 | 35.61253 | -80.89791 | 812 ft | 14 kts | 135° |
| 2026-04-18 16:59 | 35.61192 | -80.89738 | 814 ft | 7 kts | 182° |
| 2026-04-18 16:59 | 35.61158 | -80.89726 | 815 ft | 2 kts | 149° |
| 2026-04-18 17:00 | 35.61139 | -80.89713 | 815 ft | 5 kts | 149° |
| 2026-04-18 17:00 | 35.61111 | -80.89682 | 816 ft | 5 kts | 137° |
| 2026-04-18 17:00 | 35.61091 | -80.89660 | 817 ft | 3 kts | 137° |
| 2026-04-18 17:00 | 35.61052 | -80.89619 | 819 ft | 5 kts | 141° |
| 2026-04-18 17:01 | 35.61046 | -80.89612 | 819 ft | 0 kts | 137° |
| 2026-04-18 17:01 | 35.61045 | -80.89611 | 819 ft | 0 kts | 137° |